createdAt,value
2022-10-01T00:00:58.623Z,2.85
2022-10-01T00:06:03.106Z,3.22
2022-10-01T00:11:14.307Z,3.40
2022-10-01T00:16:19.730Z,3.40
2022-10-01T00:21:24.798Z,3.33
2022-10-01T00:26:31.904Z,3.33
2022-10-01T00:31:35.670Z,3.03
2022-10-01T00:36:39.312Z,3.40
2022-10-01T00:41:44.149Z,4.55
2022-10-01T00:46:47.830Z,3.42
2022-10-01T00:51:53.741Z,4.03
2022-10-01T00:57:00.625Z,3.40
2022-10-01T01:02:04.234Z,3.20
2022-10-01T01:07:08.082Z,3.35
2022-10-01T01:12:24.748Z,3.80
2022-10-01T01:17:35.198Z,4.00
2022-10-01T01:22:44.686Z,4.43
2022-10-01T01:28:02.083Z,4.57
2022-10-01T01:33:12.123Z,4.57
2022-10-01T01:38:22.092Z,4.50
2022-10-01T01:43:31.447Z,4.38
2022-10-01T01:48:37.146Z,4.25
2022-10-01T01:53:41.388Z,4.68
2022-10-01T01:58:46.942Z,4.18
2022-10-01T02:03:50.165Z,4.50
2022-10-01T02:09:03.910Z,4.25
2022-10-01T02:14:19.762Z,4.05
2022-10-01T02:19:29.686Z,4.22
2022-10-01T02:24:40.568Z,4.47
2022-10-01T02:29:47.008Z,4.43
2022-10-01T02:34:52.116Z,4.20
2022-10-01T02:39:57.870Z,4.00
2022-10-01T02:45:05.220Z,4.35
2022-10-01T02:50:10.595Z,4.03
2022-10-01T02:55:17.941Z,4.20
2022-10-01T03:00:22.879Z,3.58
2022-10-01T03:05:26.154Z,2.88
2022-10-01T03:10:30.716Z,3.40
2022-10-01T03:15:35.388Z,3.10
2022-10-01T03:20:38.751Z,2.85
2022-10-01T03:25:42.076Z,2.90
2022-10-01T03:30:46.744Z,3.13
2022-10-01T03:35:50.085Z,3.33
2022-10-01T03:40:53.446Z,2.95
2022-10-01T03:45:58.194Z,2.65
2022-10-01T03:51:01.570Z,3.28
2022-10-01T03:56:05.926Z,2.85
2022-10-01T04:01:10.928Z,3.38
2022-10-01T04:06:14.609Z,3.10
2022-10-01T04:11:17.867Z,3.17
2022-10-01T04:16:22.587Z,3.00
2022-10-01T04:21:26.075Z,2.92
2022-10-01T04:26:29.293Z,3.28
2022-10-01T04:31:35.598Z,2.75
2022-10-01T04:36:39.235Z,3.03
2022-10-01T04:41:42.455Z,2.60
2022-10-01T04:46:47.142Z,2.97
2022-10-01T04:51:50.553Z,2.78
2022-10-01T04:56:54.091Z,2.92
2022-10-01T05:01:58.805Z,2.88
2022-10-01T05:07:02.029Z,3.15
2022-10-01T05:12:05.524Z,2.63
2022-10-01T05:17:10.252Z,3.53
2022-10-01T05:22:14.852Z,2.55
2022-10-01T05:27:18.064Z,2.65
2022-10-01T05:32:22.932Z,2.90
2022-10-01T05:37:26.613Z,2.58
2022-10-01T05:42:30.018Z,2.55
2022-10-01T05:47:34.613Z,2.85
2022-10-01T05:52:38.542Z,2.33
2022-10-01T05:57:41.768Z,3.00
2022-10-01T06:02:51.779Z,2.72
2022-10-01T06:07:55.377Z,2.80
2022-10-01T06:13:01.919Z,2.38
2022-10-01T06:18:07.229Z,2.70
2022-10-01T06:23:12.878Z,2.72
2022-10-01T06:28:16.139Z,2.60
2022-10-01T06:33:21.228Z,3.13
2022-10-01T06:38:26.362Z,2.75
2022-10-01T06:43:31.295Z,2.83
2022-10-01T06:48:36.750Z,2.22
2022-10-01T06:53:40.171Z,2.85
2022-10-01T06:58:43.375Z,2.47
2022-10-01T07:03:48.062Z,2.33
2022-10-01T07:08:51.649Z,2.50
2022-10-01T07:13:55.139Z,2.63
2022-10-01T07:19:00.050Z,2.30
2022-10-01T07:24:03.552Z,2.50
2022-10-01T07:29:07.301Z,2.60
2022-10-01T07:34:12.267Z,2.30
2022-10-01T07:39:15.688Z,2.20
2022-10-01T07:44:18.983Z,2.40
2022-10-01T07:49:25.147Z,2.67
2022-10-01T07:54:28.844Z,2.47
2022-10-01T07:59:33.286Z,2.00
2022-10-01T08:04:55.280Z,1.88
2022-10-01T08:09:58.638Z,2.60
2022-10-01T08:15:02.259Z,2.08
2022-10-01T08:20:10.937Z,1.92
2022-10-01T08:25:14.423Z,1.98
2022-10-01T08:30:17.727Z,1.77
2022-10-01T08:35:22.359Z,1.90
2022-10-01T08:40:25.798Z,2.08
2022-10-01T08:45:40.502Z,1.83
2022-10-01T08:50:53.064Z,1.95
2022-10-01T08:55:57.328Z,1.60
2022-10-01T09:01:00.620Z,2.10
2022-10-01T09:06:19.365Z,1.83
2022-10-01T09:11:37.486Z,1.85
2022-10-01T09:16:49.212Z,1.92
2022-10-01T09:21:57.923Z,1.60
2022-10-01T09:27:02.868Z,1.77
2022-10-01T09:32:07.356Z,1.88
2022-10-01T09:37:20.244Z,1.95
2022-10-01T09:42:28.970Z,2.17
2022-10-01T09:47:34.628Z,1.75
2022-10-01T09:52:41.022Z,1.67
2022-10-01T09:57:48.893Z,1.63
2022-10-01T10:02:54.470Z,1.80
2022-10-01T10:08:03.886Z,1.77
2022-10-01T10:13:21.562Z,1.90
2022-10-01T10:18:29.940Z,1.70
2022-10-01T10:23:35.043Z,1.70
2022-10-01T10:28:44.182Z,1.23
2022-10-01T10:33:51.244Z,1.30
2022-10-01T10:38:56.235Z,1.10
2022-10-01T10:44:04.964Z,1.42
2022-10-01T10:49:14.854Z,1.30
2022-10-01T10:54:23.056Z,1.27
2022-10-01T10:59:26.656Z,1.45
2022-10-01T11:04:43.174Z,1.30
2022-10-01T11:10:10.063Z,1.42
2022-10-01T11:15:26.279Z,1.65
2022-10-01T11:20:39.635Z,1.50
2022-10-01T11:25:55.747Z,1.70
2022-10-01T11:31:06.408Z,1.70
2022-10-01T11:36:22.281Z,1.30
2022-10-01T11:41:35.075Z,1.35
2022-10-01T11:46:53.621Z,1.45
2022-10-01T11:52:06.123Z,1.40
2022-10-01T11:57:34.175Z,1.48
2022-10-01T12:02:44.021Z,1.40
2022-10-01T12:07:52.660Z,2.00
2022-10-01T12:13:02.949Z,1.83
2022-10-01T12:18:14.339Z,1.88
2022-10-01T12:23:21.884Z,1.80
2022-10-01T12:28:31.256Z,1.80
2022-10-01T12:33:54.416Z,1.92
2022-10-01T12:39:16.075Z,1.63
2022-10-01T12:44:51.647Z,1.60
2022-10-01T12:50:04.960Z,1.77
2022-10-01T12:55:26.633Z,1.33
2022-10-01T13:00:36.170Z,1.10
2022-10-01T13:05:48.108Z,0.90
2022-10-01T13:11:02.360Z,0.90
2022-10-01T13:16:13.284Z,0.70
2022-10-01T13:21:26.536Z,0.85
2022-10-01T13:26:35.475Z,0.82
2022-10-01T13:31:56.903Z,0.95
2022-10-01T13:37:15.012Z,1.00
2022-10-01T13:42:24.250Z,0.85
2022-10-01T13:47:29.690Z,0.77
2022-10-01T13:52:33.668Z,1.10
2022-10-01T13:57:38.670Z,1.02
2022-10-01T14:02:45.544Z,0.60
2022-10-01T14:07:54.608Z,0.80
2022-10-01T14:13:18.425Z,0.82
2022-10-01T14:18:29.804Z,1.00
2022-10-01T14:23:40.366Z,1.08
2022-10-01T14:29:02.489Z,1.10
2022-10-01T14:34:23.075Z,1.00
2022-10-01T14:39:27.962Z,1.08
2022-10-01T14:44:32.797Z,0.80
2022-10-01T14:49:37.381Z,1.10
2022-10-01T14:54:46.960Z,1.17
2022-10-01T14:59:50.610Z,1.10
2022-10-01T15:04:57.701Z,1.23
2022-10-01T15:10:08.139Z,1.40
2022-10-01T15:15:20.060Z,1.05
2022-10-01T15:20:24.863Z,1.40
2022-10-01T15:25:30.509Z,2.00
2022-10-01T15:30:37.201Z,1.35
2022-10-01T15:35:41.935Z,1.33
2022-10-01T15:40:45.412Z,1.27
2022-10-01T15:46:17.325Z,1.40
2022-10-01T15:51:25.918Z,1.33
2022-10-01T15:56:30.630Z,1.55
2022-10-01T16:01:40.757Z,1.40
2022-10-01T16:06:48.345Z,1.73
2022-10-01T16:11:55.160Z,1.98
2022-10-01T16:17:28.026Z,1.48
2022-10-01T16:22:34.934Z,1.60
2022-10-01T16:27:46.619Z,1.67
2022-10-01T16:32:50.110Z,1.83
2022-10-01T16:37:56.179Z,1.90
2022-10-01T16:43:00.846Z,1.98
2022-10-01T16:48:11.062Z,2.40
2022-10-01T16:53:18.316Z,1.70
2022-10-01T16:58:21.880Z,1.38
2022-10-01T17:03:25.255Z,1.38
2022-10-01T17:08:30.197Z,1.77
2022-10-01T17:13:35.275Z,1.30
2022-10-01T17:18:39.043Z,1.35
2022-10-01T17:23:44.017Z,1.17
2022-10-01T17:28:47.245Z,1.08
2022-10-01T17:33:53.721Z,1.20
2022-10-01T17:38:58.390Z,0.98
2022-10-01T17:44:02.045Z,0.90
2022-10-01T17:49:05.410Z,0.85
2022-10-01T17:54:10.082Z,1.00
2022-10-01T17:59:13.367Z,1.05
2022-10-01T18:04:17.333Z,0.90
2022-10-01T18:09:22.224Z,0.93
2022-10-01T18:14:28.375Z,0.82
2022-10-01T18:24:59.230Z,0.90
2022-10-01T18:30:02.800Z,0.75
2022-10-01T18:35:21.878Z,0.82
2022-10-01T18:40:30.103Z,0.73
2022-10-01T18:45:50.883Z,0.93
2022-10-01T18:51:02.076Z,1.13
2022-10-01T18:56:30.440Z,0.95
2022-10-01T19:01:44.639Z,0.77
2022-10-01T19:06:57.335Z,1.20
2022-10-01T19:12:13.892Z,0.90
2022-10-01T19:17:29.041Z,0.82
2022-10-01T19:22:45.640Z,0.98
2022-10-01T19:28:01.963Z,0.73
2022-10-01T19:33:09.684Z,0.73
2022-10-01T19:38:18.226Z,0.77
2022-10-01T19:43:29.484Z,0.63
2022-10-01T19:48:48.744Z,0.80
2022-10-01T19:54:00.185Z,0.75
2022-10-01T19:59:08.970Z,0.90
2022-10-01T20:04:21.354Z,0.90
2022-10-01T20:09:29.519Z,0.75
2022-10-01T20:15:10.012Z,0.88
2022-10-01T20:20:19.551Z,0.85
2022-10-01T20:25:33.714Z,1.00
2022-10-01T20:30:50.851Z,1.27
2022-10-01T20:36:02.286Z,0.90
2022-10-01T20:41:13.244Z,0.80
2022-10-01T20:46:23.660Z,0.63
2022-10-01T20:51:34.601Z,0.85
2022-10-01T20:56:43.100Z,0.73
2022-10-01T21:01:55.181Z,0.60
2022-10-01T21:07:07.568Z,0.70
2022-10-01T21:12:18.222Z,0.70
2022-10-01T21:17:37.110Z,0.80
2022-10-01T21:22:56.666Z,0.63
2022-10-01T21:28:13.022Z,0.60
2022-10-01T21:33:25.118Z,0.60
2022-10-01T21:38:32.975Z,0.70
2022-10-01T21:43:50.597Z,0.70
2022-10-01T21:49:03.047Z,0.70
2022-10-01T21:54:32.092Z,0.68
2022-10-01T21:59:55.205Z,0.47
2022-10-01T22:05:06.481Z,0.60
2022-10-01T22:10:16.271Z,0.57
2022-10-01T22:15:25.956Z,0.73
2022-10-01T22:20:34.401Z,0.70
2022-10-01T22:25:44.246Z,0.73
2022-10-01T22:30:49.296Z,0.70
2022-10-01T22:35:57.222Z,0.60
2022-10-01T22:41:07.639Z,0.60
2022-10-01T22:46:40.410Z,0.50
2022-10-01T22:52:01.800Z,0.60
2022-10-01T22:57:16.320Z,0.60
2022-10-01T23:02:30.108Z,0.40
2022-10-01T23:07:46.687Z,0.52
2022-10-01T23:12:59.298Z,0.55
2022-10-01T23:18:09.953Z,0.60
2022-10-01T23:23:30.779Z,0.65
2022-10-01T23:28:45.426Z,0.40
2022-10-01T23:34:04.784Z,0.55
2022-10-01T23:39:44.421Z,0.57
2022-10-01T23:44:52.923Z,0.45
2022-10-01T23:49:59.036Z,0.65
2022-10-01T23:55:21.052Z,0.40
